createdAt,value
2022-08-03T00:09:13.973Z,3.15
2022-08-03T00:20:11.357Z,3.14
2022-08-03T00:31:13.578Z,3.14
2022-08-03T00:42:13.269Z,3.14
2022-08-03T00:53:11.900Z,3.13
2022-08-03T01:03:58.059Z,3.12
2022-08-03T01:14:46.471Z,3.11
2022-08-03T01:25:48.007Z,3.11
2022-08-03T01:36:52.202Z,3.11
2022-08-03T01:47:46.117Z,3.11
2022-08-03T01:58:43.508Z,3.10
2022-08-03T02:09:41.912Z,3.10
2022-08-03T02:20:40.346Z,3.10
2022-08-03T02:31:42.662Z,3.10
2022-08-03T02:42:44.240Z,3.09
2022-08-03T02:53:39.818Z,3.09
2022-08-03T03:04:54.983Z,3.09
2022-08-03T03:15:43.762Z,3.08
2022-08-03T03:26:42.531Z,3.08
2022-08-03T03:37:44.954Z,3.07
2022-08-03T03:48:47.318Z,3.07
2022-08-03T03:59:49.077Z,3.07
2022-08-03T04:10:50.637Z,3.07
2022-08-03T04:21:38.659Z,3.06
2022-08-03T04:32:36.327Z,3.07
2022-08-03T04:43:32.963Z,3.08
2022-08-03T04:54:33.967Z,3.09
2022-08-03T05:05:49.623Z,3.12
2022-08-03T05:16:41.430Z,3.13
2022-08-03T05:27:42.482Z,3.14
2022-08-03T05:38:44.068Z,3.14
2022-08-03T05:49:45.433Z,3.14
2022-08-03T06:00:47.082Z,3.15
2022-08-03T06:11:43.607Z,3.15
2022-08-03T06:22:50.858Z,3.17
2022-08-03T06:34:30.489Z,3.17
2022-08-03T06:44:42.451Z,3.18
2022-08-03T06:55:42.280Z,3.19
2022-08-03T07:06:44.709Z,3.21
2022-08-03T07:17:46.461Z,3.23
2022-08-03T07:28:38.346Z,3.23
2022-08-03T07:39:33.885Z,3.25
2022-08-03T07:50:32.286Z,3.25
2022-08-03T08:01:27.614Z,3.27
2022-08-03T08:12:21.082Z,3.28
2022-08-03T08:23:41.734Z,3.29
2022-08-03T08:34:03.938Z,3.30
2022-08-03T08:44:38.570Z,3.31
2022-08-03T08:55:20.742Z,3.32
2022-08-03T09:06:09.861Z,3.34
2022-08-03T09:16:44.101Z,3.34
2022-08-03T09:27:29.959Z,3.37
2022-08-03T09:38:30.036Z,3.38
2022-08-03T09:49:21.720Z,3.34
2022-08-03T10:00:24.060Z,3.33
2022-08-03T10:11:24.228Z,3.33
2022-08-03T10:22:23.302Z,3.33
2022-08-03T10:33:51.328Z,3.33
2022-08-03T10:44:21.034Z,3.33
2022-08-03T10:55:13.459Z,3.34
2022-08-03T11:06:15.088Z,3.34
2022-08-03T11:17:14.620Z,3.34
2022-08-03T11:28:04.925Z,3.34
2022-08-03T11:39:00.235Z,3.34
2022-08-03T11:49:50.245Z,3.34
2022-08-03T12:00:43.747Z,3.34
2022-08-03T12:11:56.214Z,3.34
2022-08-03T12:22:50.795Z,3.33
2022-08-03T12:33:52.161Z,3.34
2022-08-03T12:44:59.751Z,3.33
2022-08-03T12:56:04.565Z,3.34
2022-08-03T13:07:02.626Z,3.34
2022-08-03T13:18:02.074Z,3.34
2022-08-03T13:28:56.664Z,3.34
2022-08-03T13:39:58.862Z,3.34
2022-08-03T13:50:50.776Z,3.34
2022-08-03T14:01:55.454Z,3.34
2022-08-03T14:12:49.400Z,3.35
2022-08-03T14:23:42.783Z,3.34
2022-08-03T14:34:46.882Z,3.34
2022-08-03T14:45:49.693Z,3.34
2022-08-03T14:56:52.725Z,3.34
2022-08-03T15:07:51.025Z,3.35
2022-08-03T15:18:38.502Z,3.34
2022-08-03T15:30:07.512Z,3.34
2022-08-03T15:40:35.889Z,3.33
2022-08-03T15:51:32.181Z,3.38
2022-08-03T16:02:32.700Z,3.39
2022-08-03T16:14:13.514Z,3.39
2022-08-03T16:24:32.644Z,3.38
2022-08-03T16:35:28.040Z,3.38
2022-08-03T16:46:28.016Z,3.37
2022-08-03T16:57:55.660Z,3.37
2022-08-03T17:08:28.229Z,3.36
2022-08-03T17:19:20.744Z,3.36
2022-08-03T17:30:19.233Z,3.34
2022-08-03T17:41:16.847Z,3.34
2022-08-03T17:52:17.298Z,3.33
2022-08-03T18:03:10.056Z,3.32
2022-08-03T18:14:16.442Z,3.31
2022-08-03T18:25:09.096Z,3.30
2022-08-03T18:36:17.356Z,3.30
2022-08-03T18:47:16.977Z,3.29
2022-08-03T18:58:18.070Z,3.28
2022-08-03T19:09:18.041Z,3.28
2022-08-03T19:19:56.473Z,3.27
2022-08-03T19:30:53.500Z,3.26
2022-08-03T19:41:45.647Z,3.26
2022-08-03T19:52:42.266Z,3.25
2022-08-03T20:03:43.117Z,3.25
2022-08-03T20:14:41.263Z,3.25
2022-08-03T20:25:38.986Z,3.24
2022-08-03T20:36:29.010Z,3.23
2022-08-03T20:47:29.060Z,3.23
2022-08-03T20:58:25.315Z,3.23
2022-08-03T21:09:19.761Z,3.22
2022-08-03T21:20:11.925Z,3.22
2022-08-03T21:31:13.111Z,3.22
2022-08-03T21:42:05.485Z,3.21
2022-08-03T21:53:06.978Z,3.21
2022-08-03T22:04:03.877Z,3.21
2022-08-03T22:15:06.514Z,3.20
2022-08-03T22:26:07.923Z,3.20
2022-08-03T22:37:09.004Z,3.19
2022-08-03T22:47:52.471Z,3.18
2022-08-03T22:58:53.627Z,3.18
2022-08-03T23:09:39.306Z,3.17
2022-08-03T23:20:41.667Z,3.17
2022-08-03T23:31:43.103Z,3.17
2022-08-03T23:42:41.787Z,3.17
2022-08-03T23:53:33.109Z,3.15
